Humidity-temperature Sensor

Selected Measurement Type: Air Temperature

 
Air Temperature [°C]     6 entries per hour
Showing data from 12/6/2022 (00:00:00 Z) to 12/5/2022 (00:01:00 Z)
Previous Next [ Day | 3-Days | 7-Days ]
First Last
Prev [ Day | 3-Days | 7-Days ] Next
First Last

Start Time:     :
End Time:     :     
Time (in GMT) :00 :50 :40 :30 :20 :10
Previous Next [ Day | 3-Days | 7-Days ]
First Last
Prev [ Day | 3-Days | 7-Days ] Next
First Last


123 => good data
MM => data is determined as missing
-- => data not received/configured
Back to Top Back to Top
12/6/2022 00:00 to 23:10 25.39 25.51 25.42 25.43 25.39 25.43
12/5/2022 23:00 to 22:10 25.42 25.20 25.02 25.03 25.02 24.90
12/5/2022 22:00 to 21:10 24.88 25.13 24.93 24.89 24.78 24.54
12/5/2022 21:00 to 20:10 24.47 24.23 24.03 24.00 23.92 24.10
12/5/2022 20:00 to 19:10 24.20 24.03 24.00 23.81 23.90 23.76
12/5/2022 19:00 to 18:10 23.96 23.67 23.57 23.42 22.98 22.98
12/5/2022 18:00 to 17:10 22.87 22.95 22.87 23.01 23.70 23.69
12/5/2022 17:00 to 16:10 23.74 23.86 24.06 24.31 24.37 24.61
12/5/2022 16:00 to 15:10 24.54 24.70 24.67 24.76 24.73 24.87
12/5/2022 15:00 to 14:10 25.18 25.36 25.00 24.69 24.73 24.77
12/5/2022 14:00 to 13:10 24.32 24.52 24.34 24.37 24.43 24.56
12/5/2022 13:00 to 12:10 24.49 24.97 25.15 25.28 25.15 25.12
12/5/2022 12:00 to 11:10 25.14 25.13 25.14 25.19 24.94 24.95
12/5/2022 11:00 to 10:10 25.02 25.03 25.09 25.27 25.24 25.25
12/5/2022 10:00 to 9:10 25.15 25.25 25.16 25.25 25.13 25.08
12/5/2022 09:00 to 8:10 24.98 24.96 25.01 25.00 24.88 24.94
12/5/2022 08:00 to 7:10 24.89 24.86 24.83 25.02 24.93 24.75
12/5/2022 07:00 to 6:10 24.94 24.86 24.62 24.68 24.68 24.65
12/5/2022 06:00 to 5:10 24.89 24.89 24.96 24.87 24.76 24.81
12/5/2022 05:00 to 4:10 24.87 24.93 24.78 24.84 25.07 24.95
12/5/2022 04:00 to 3:10 25.00 24.96 25.14 25.04 25.08 25.08
12/5/2022 03:00 to 2:10 25.01 25.00 25.14 24.93 24.98 24.98
12/5/2022 02:00 to 1:10 25.06 25.19 25.30 24.99 25.08 25.03
12/5/2022 01:00 to 0:10 24.94 24.87 25.12 24.85 24.73 24.77